createdAt,value
2018-11-12T00:01:25.360Z,45.43
2018-11-12T00:03:54.534Z,49.77
2018-11-12T00:06:23.739Z,46.80
2018-11-12T00:08:52.954Z,60.10
2018-11-12T00:11:22.133Z,41.73
2018-11-12T00:13:51.531Z,36.37
2018-11-12T00:16:20.719Z,36.20
2018-11-12T00:18:49.903Z,38.73
2018-11-12T00:21:19.110Z,45.87
2018-11-12T00:23:48.369Z,35.17
2018-11-12T00:26:17.534Z,44.80
2018-11-12T00:28:46.692Z,43.80
2018-11-12T00:31:15.884Z,36.27
2018-11-12T00:33:45.054Z,45.23
2018-11-12T00:36:14.216Z,37.07
2018-11-12T00:38:43.426Z,40.23
2018-11-12T00:41:12.590Z,43.47
2018-11-12T00:43:41.979Z,38.97
2018-11-12T00:46:11.437Z,39.37
2018-11-12T00:48:41.646Z,37.07
2018-11-12T00:51:10.797Z,34.80
2018-11-12T00:53:40.074Z,45.33
2018-11-12T00:56:09.263Z,40.30
2018-11-12T00:58:38.423Z,33.30
2018-11-12T01:01:08.999Z,40.93
2018-11-12T01:03:58.383Z,43.30
2018-11-12T01:06:27.621Z,41.27
2018-11-12T01:08:56.792Z,34.20
2018-11-12T01:11:26.071Z,33.20
2018-11-12T01:13:55.350Z,39.30
2018-11-12T01:16:24.591Z,41.00
2018-11-12T01:18:53.746Z,29.50
2018-11-12T01:21:22.897Z,44.37
2018-11-12T01:23:52.133Z,42.00
2018-11-12T01:26:21.296Z,43.83
2018-11-12T01:28:50.532Z,32.00
2018-11-12T01:31:19.789Z,36.20
2018-11-12T01:33:49.024Z,35.17
2018-11-12T01:36:18.337Z,30.20
2018-11-12T01:38:47.561Z,33.47
2018-11-12T01:41:16.841Z,36.20
2018-11-12T01:43:46.002Z,46.50
2018-11-12T01:46:15.199Z,29.00
2018-11-12T01:48:44.427Z,44.00
2018-11-12T01:51:13.638Z,30.03
2018-11-12T01:53:42.821Z,35.90
2018-11-12T01:56:11.981Z,31.30
2018-11-12T01:58:41.198Z,30.63
2018-11-12T02:01:10.372Z,29.77
2018-11-12T02:03:40.165Z,29.67
2018-11-12T02:06:09.451Z,38.83
2018-11-12T02:08:38.790Z,37.70
2018-11-12T02:11:07.911Z,33.90
2018-11-12T02:13:37.156Z,28.20
2018-11-12T02:16:09.164Z,28.13
2018-11-12T02:18:38.774Z,26.67
2018-11-12T02:21:08.897Z,27.50
2018-11-12T02:23:38.234Z,29.00
2018-11-12T02:26:07.397Z,40.20
2018-11-12T02:28:36.702Z,39.33
2018-11-12T02:31:06.656Z,37.80
2018-11-12T02:33:35.924Z,32.37
2018-11-12T02:36:05.733Z,39.90
2018-11-12T02:41:19.782Z,40.27
2018-11-12T02:43:48.947Z,33.73
2018-11-12T02:46:18.255Z,37.90
2018-11-12T02:48:47.469Z,37.67
2018-11-12T02:51:16.699Z,35.77
2018-11-12T02:53:45.962Z,25.97
2018-11-12T02:56:15.192Z,36.60
2018-11-12T02:58:44.553Z,31.97
2018-11-12T03:01:13.741Z,37.20
2018-11-12T03:03:42.990Z,31.93
2018-11-12T03:06:12.134Z,30.50
2018-11-12T03:08:41.329Z,29.00
2018-11-12T03:11:10.510Z,33.47
2018-11-12T03:13:39.713Z,30.17
2018-11-12T03:16:08.943Z,28.30
2018-11-12T03:18:38.106Z,33.40
2018-11-12T03:21:07.516Z,33.50
2018-11-12T03:23:59.607Z,27.73
2018-11-12T03:26:29.024Z,26.13
2018-11-12T03:28:58.357Z,38.23
2018-11-12T03:31:27.524Z,45.57
2018-11-12T03:33:56.745Z,40.50
2018-11-12T03:36:25.904Z,37.70
2018-11-12T03:38:55.070Z,25.23
2018-11-12T03:41:24.313Z,33.70
2018-11-12T03:43:53.473Z,34.50
2018-11-12T03:46:22.630Z,25.93
2018-11-12T03:48:51.858Z,35.47
2018-11-12T03:51:21.016Z,26.03
2018-11-12T03:53:50.270Z,23.93
2018-11-12T03:56:19.437Z,32.23
2018-11-12T03:58:48.722Z,34.47
2018-11-12T04:01:17.903Z,31.73
2018-11-12T04:03:47.145Z,30.13
2018-11-12T04:09:16.383Z,24.40
2018-11-12T04:11:45.985Z,23.90
2018-11-12T04:14:15.253Z,32.10
2018-11-12T04:16:45.309Z,37.50
2018-11-12T04:19:14.481Z,35.23
2018-11-12T04:21:43.730Z,32.10
2018-11-12T04:24:12.877Z,38.67
2018-11-12T04:26:42.060Z,35.87
2018-11-12T04:29:11.306Z,23.57
2018-11-12T04:31:40.542Z,22.60
2018-11-12T04:37:10.382Z,21.70
2018-11-12T04:39:39.541Z,23.30
2018-11-12T04:42:08.706Z,23.33
2018-11-12T04:44:38.069Z,23.80
2018-11-12T04:47:07.296Z,21.27
2018-11-12T04:49:36.468Z,29.77
2018-11-12T04:52:06.012Z,22.07
2018-11-12T04:54:35.186Z,22.50
2018-11-12T04:57:04.377Z,23.23
2018-11-12T04:59:33.602Z,22.23
2018-11-12T05:02:02.968Z,23.17
2018-11-12T05:04:32.072Z,21.93
2018-11-12T05:07:01.221Z,27.70
2018-11-12T05:09:30.428Z,43.80
2018-11-12T05:11:59.596Z,45.37
2018-11-12T05:14:28.974Z,24.10
2018-11-12T05:16:58.161Z,23.27
2018-11-12T05:19:27.413Z,21.20
2018-11-12T05:21:56.842Z,24.27
2018-11-12T05:24:26.009Z,21.37
2018-11-12T05:26:55.158Z,22.87
2018-11-12T05:29:24.374Z,33.00
2018-11-12T05:31:53.755Z,26.60
2018-11-12T05:34:22.913Z,32.57
2018-11-12T05:36:52.073Z,27.27
2018-11-12T05:39:21.273Z,35.00
2018-11-12T05:41:50.448Z,28.70
2018-11-12T05:47:20.362Z,30.53
2018-11-12T05:49:49.546Z,23.80
2018-11-12T05:52:18.770Z,28.87
2018-11-12T05:54:47.934Z,23.63
2018-11-12T05:57:17.270Z,20.20
2018-11-12T05:59:46.463Z,22.93
2018-11-12T06:02:15.725Z,24.90
2018-11-12T06:04:44.953Z,25.47
2018-11-12T06:07:14.143Z,22.70
2018-11-12T06:09:43.364Z,22.37
2018-11-12T06:12:12.527Z,24.57
2018-11-12T06:14:41.818Z,40.70
2018-11-12T06:17:11.003Z,23.33
2018-11-12T06:19:40.272Z,22.07
2018-11-12T06:22:09.519Z,20.87
2018-11-12T06:24:38.676Z,21.50
2018-11-12T06:27:07.884Z,23.73
2018-11-12T06:29:37.041Z,27.40
2018-11-12T06:32:06.750Z,22.10
2018-11-12T06:34:36.006Z,22.77
2018-11-12T06:37:05.761Z,20.27
2018-11-12T06:39:34.973Z,20.60
2018-11-12T06:42:04.133Z,30.60
2018-11-12T06:44:33.413Z,21.43
2018-11-12T06:47:02.586Z,27.20
2018-11-12T06:49:31.931Z,36.27
2018-11-12T06:52:01.085Z,31.73
2018-11-12T06:54:57.623Z,30.30
2018-11-12T06:57:26.796Z,23.37
2018-11-12T06:59:55.983Z,20.97
2018-11-12T07:02:25.281Z,24.37
2018-11-12T07:04:54.456Z,36.80
2018-11-12T07:07:23.627Z,27.80
2018-11-12T07:09:52.874Z,22.07
2018-11-12T07:12:22.123Z,28.43
2018-11-12T07:14:51.285Z,19.67
2018-11-12T07:17:20.467Z,22.23
2018-11-12T07:19:49.841Z,20.30
2018-11-12T07:25:21.113Z,22.03
2018-11-12T07:27:50.278Z,21.00
2018-11-12T07:30:22.691Z,20.83
2018-11-12T07:32:52.826Z,24.50
2018-11-12T07:35:22.373Z,31.10
2018-11-12T07:37:52.778Z,28.00
2018-11-12T07:40:22.421Z,33.67
2018-11-12T07:42:51.607Z,31.37
2018-11-12T07:45:23.060Z,32.60
2018-11-12T07:47:53.033Z,38.10
2018-11-12T07:50:23.422Z,36.27
2018-11-12T07:52:52.580Z,33.93
2018-11-12T07:55:23.130Z,37.50
2018-11-12T07:57:53.657Z,37.63
2018-11-12T08:00:25.149Z,37.70
2018-11-12T08:02:59.653Z,27.33
2018-11-12T08:05:28.830Z,39.53
2018-11-12T08:07:58.021Z,40.30
2018-11-12T08:10:27.244Z,27.67
2018-11-12T08:12:56.489Z,35.33
2018-11-12T08:15:25.667Z,29.80
2018-11-12T08:18:00.818Z,36.70
2018-11-12T08:20:57.495Z,29.33
2018-11-12T08:23:26.687Z,36.63
2018-11-12T08:26:02.129Z,33.00
2018-11-12T08:28:58.038Z,35.47
2018-11-12T08:34:57.053Z,35.77
2018-11-12T08:37:26.224Z,29.77
2018-11-12T08:39:55.536Z,31.73
2018-11-12T08:51:25.719Z,31.40
2018-11-12T08:54:00.904Z,24.67
2018-11-12T09:03:59.325Z,33.80
2018-11-12T09:06:57.149Z,30.70
2018-11-12T09:15:28.026Z,22.90
2018-11-12T09:18:01.516Z,27.87
2018-11-12T09:20:57.129Z,38.70
2018-11-12T09:29:26.766Z,22.90
2018-11-12T09:32:02.069Z,40.13
2018-11-12T09:34:57.123Z,28.00
2018-11-12T09:37:52.033Z,26.03
2018-11-12T09:43:23.708Z,39.70
2018-11-12T09:45:59.809Z,36.90
2018-11-12T09:48:58.808Z,30.47
2018-11-12T09:51:57.511Z,30.80
2018-11-12T10:00:57.663Z,38.30
2018-11-12T10:03:36.052Z,33.23
2018-11-12T10:06:05.276Z,39.97
2018-11-12T10:12:03.803Z,30.90
2018-11-12T10:15:01.640Z,28.93
2018-11-12T10:18:00.639Z,26.73
2018-11-12T10:26:57.803Z,31.60
2018-11-12T10:29:57.885Z,31.03
2018-11-12T10:35:57.533Z,32.43
2018-11-12T10:44:40.433Z,27.67
2018-11-12T10:53:16.098Z,30.90
2018-11-12T10:55:59.628Z,31.83
2018-11-12T11:01:35.622Z,26.90
2018-11-12T11:04:11.601Z,30.00
2018-11-12T11:06:42.653Z,30.83
2018-11-12T11:09:11.944Z,29.23
2018-11-12T11:11:41.901Z,29.57
2018-11-12T11:19:59.498Z,29.43
2018-11-12T11:22:58.094Z,30.00
2018-11-12T11:31:57.724Z,18.27
2018-11-12T11:40:58.103Z,19.43
2018-11-12T11:43:46.917Z,20.27
2018-11-12T11:46:16.367Z,22.80
2018-11-12T11:48:45.603Z,20.30
2018-11-12T11:57:16.543Z,19.00
2018-11-12T11:59:45.879Z,17.60
2018-11-12T12:12:03.062Z,20.87
2018-11-12T12:14:38.724Z,16.87
2018-11-12T12:17:08.008Z,15.80
2018-11-12T12:19:37.404Z,14.53
2018-11-12T12:22:08.706Z,15.43
2018-11-12T12:24:38.051Z,17.30
2018-11-12T12:30:34.385Z,17.47
2018-11-12T12:33:03.590Z,23.57
2018-11-12T12:35:58.177Z,22.53
2018-11-12T12:41:57.941Z,10.60
2018-11-12T12:47:57.377Z,15.40
2018-11-12T12:59:57.921Z,12.30
2018-11-12T13:08:58.050Z,13.60
2018-11-12T13:11:27.287Z,13.00
2018-11-12T13:14:02.539Z,15.40
2018-11-12T13:16:57.519Z,14.40
2018-11-12T13:19:26.810Z,16.97
2018-11-12T13:21:56.141Z,13.70
2018-11-12T13:24:25.325Z,16.10
2018-11-12T13:26:54.577Z,17.10
2018-11-12T13:29:23.817Z,15.87
2018-11-12T13:31:53.136Z,14.50
2018-11-12T13:34:22.312Z,12.17
2018-11-12T13:37:00.074Z,13.37
2018-11-12T13:39:29.328Z,14.40
2018-11-12T13:41:58.538Z,14.00
2018-11-12T13:44:27.732Z,13.77
2018-11-12T13:46:58.406Z,15.43
2018-11-12T13:49:27.581Z,13.97
2018-11-12T13:51:56.756Z,14.07
2018-11-12T13:54:28.063Z,12.90
2018-11-12T13:56:57.306Z,15.10
2018-11-12T13:59:26.483Z,16.83
2018-11-12T14:01:58.434Z,16.47
2018-11-12T14:04:27.619Z,14.90
2018-11-12T14:07:00.889Z,15.43
2018-11-12T14:09:30.059Z,20.30
2018-11-12T14:11:59.245Z,21.67
2018-11-12T14:14:28.473Z,22.00
2018-11-12T14:16:57.649Z,16.53
2018-11-12T14:19:26.912Z,17.03
2018-11-12T14:21:56.377Z,13.83
2018-11-12T14:24:25.548Z,14.20
2018-11-12T14:26:54.713Z,12.47
2018-11-12T14:29:24.503Z,14.57
2018-11-12T14:31:53.758Z,14.00
2018-11-12T14:34:22.949Z,13.60
2018-11-12T14:36:52.188Z,12.90
2018-11-12T14:39:21.665Z,12.13
2018-11-12T14:41:50.950Z,13.90
2018-11-12T14:44:20.310Z,12.47
2018-11-12T14:46:49.590Z,13.47
2018-11-12T14:49:18.773Z,11.97
2018-11-12T14:51:48.048Z,12.97
2018-11-12T14:54:17.187Z,12.30
2018-11-12T14:56:46.524Z,12.30
2018-11-12T14:59:15.712Z,12.20
2018-11-12T15:01:45.142Z,13.60
2018-11-12T15:04:14.377Z,11.77
2018-11-12T15:06:44.666Z,13.00
2018-11-12T15:09:14.116Z,15.80
2018-11-12T15:11:43.417Z,12.77
2018-11-12T15:14:12.697Z,14.90
2018-11-12T15:17:01.235Z,15.20
2018-11-12T15:19:30.706Z,14.97
2018-11-12T15:22:00.679Z,12.80
2018-11-12T15:24:30.519Z,13.33
2018-11-12T15:26:59.774Z,12.20
2018-11-12T15:29:29.157Z,12.03
2018-11-12T15:32:02.046Z,13.70
2018-11-12T15:34:31.531Z,14.10
2018-11-12T15:37:01.081Z,14.10
2018-11-12T15:39:30.853Z,12.77
2018-11-12T15:42:00.117Z,12.30
2018-11-12T15:44:58.988Z,14.10
2018-11-12T15:47:28.369Z,16.70
2018-11-12T15:49:57.618Z,15.27
2018-11-12T15:52:26.812Z,14.27
2018-11-12T15:54:56.187Z,17.07
2018-11-12T15:57:25.706Z,16.37
2018-11-12T15:59:56.278Z,17.10
2018-11-12T16:02:25.571Z,19.80
2018-11-12T16:04:54.896Z,19.07
2018-11-12T16:07:24.163Z,19.27
2018-11-12T16:10:00.327Z,18.20
2018-11-12T16:12:59.112Z,18.17
2018-11-12T16:15:57.786Z,18.30
2018-11-12T16:21:57.513Z,14.20
2018-11-12T16:30:57.849Z,18.80
2018-11-12T16:39:57.708Z,15.10
2018-11-12T16:48:57.977Z,17.67
2018-11-12T16:57:57.914Z,16.80
2018-11-12T17:03:57.600Z,21.40
2018-11-12T17:15:58.491Z,15.13
2018-11-12T17:24:58.067Z,20.70
2018-11-12T17:30:57.726Z,22.37
2018-11-12T17:39:58.133Z,23.73
2018-11-12T17:48:57.558Z,27.60
2018-11-12T17:54:28.093Z,22.07
2018-11-12T17:56:57.294Z,25.30
2018-11-12T17:59:27.362Z,27.50
2018-11-12T18:02:01.423Z,21.60
2018-11-12T18:04:59.455Z,23.67
2018-11-12T18:07:30.607Z,23.83
2018-11-12T18:10:00.912Z,24.70
2018-11-12T18:12:31.849Z,25.30
2018-11-12T18:15:02.225Z,28.50
2018-11-12T18:17:33.248Z,28.70
2018-11-12T18:20:04.827Z,30.87
2018-11-12T18:22:34.639Z,25.23
2018-11-12T18:25:05.028Z,21.17
2018-11-12T18:27:35.739Z,18.67
2018-11-12T18:30:09.365Z,20.47
2018-11-12T18:33:00.102Z,22.93
2018-11-12T18:35:29.848Z,25.77
2018-11-12T18:38:00.375Z,25.17
2018-11-12T18:40:31.720Z,25.10
2018-11-12T18:43:05.114Z,28.73
2018-11-12T18:45:34.483Z,28.27
2018-11-12T18:48:05.291Z,28.03
2018-11-12T18:50:37.822Z,22.50
2018-11-12T18:53:07.935Z,24.10
2018-11-12T18:55:39.185Z,28.87
2018-11-12T18:58:10.352Z,28.13
2018-11-12T19:01:00.283Z,29.10
2018-11-12T19:03:31.574Z,29.93
2018-11-12T19:06:01.238Z,27.40
2018-11-12T19:08:32.043Z,20.23
2018-11-12T19:11:05.103Z,26.03
2018-11-12T19:13:37.772Z,26.33
2018-11-12T19:16:08.300Z,30.33
2018-11-12T19:18:40.973Z,18.10
2018-11-12T19:21:11.180Z,25.10
2018-11-12T19:23:42.300Z,26.30
2018-11-12T19:26:12.195Z,23.80
2018-11-12T19:28:42.358Z,22.10
2018-11-12T19:40:12.460Z,25.80
2018-11-12T19:43:04.429Z,28.40
2018-11-12T19:45:58.469Z,25.20
2018-11-12T19:48:27.701Z,27.50
2018-11-12T19:50:56.961Z,27.67
2018-11-12T19:53:27.667Z,17.60
2018-11-12T19:55:56.924Z,25.50
2018-11-12T19:58:26.175Z,23.87
2018-11-12T20:00:55.382Z,31.60
2018-11-12T20:06:25.488Z,23.30
2018-11-12T20:09:00.926Z,31.57
2018-11-12T20:11:30.579Z,24.20
2018-11-12T20:14:01.077Z,17.63
2018-11-12T20:16:59.672Z,16.80
2018-11-12T20:19:57.645Z,25.60
2018-11-12T20:34:58.247Z,17.73
2018-11-12T20:37:27.497Z,40.80
2018-11-12T20:43:02.341Z,24.63
2018-11-12T20:45:58.224Z,26.73
2018-11-12T20:57:13.828Z,17.63
2018-11-12T21:00:00.293Z,28.30
2018-11-12T21:02:29.626Z,36.67
2018-11-12T21:04:58.813Z,47.10
2018-11-12T21:07:57.702Z,23.20
2018-11-12T21:10:26.924Z,18.90
2018-11-12T21:13:02.151Z,45.40
2018-11-12T21:15:58.104Z,19.87
2018-11-12T21:18:27.341Z,16.93
2018-11-12T21:20:56.534Z,19.70
2018-11-12T21:23:25.856Z,18.50
2018-11-12T21:25:55.088Z,29.50
2018-11-12T21:28:24.277Z,21.60
2018-11-12T21:30:53.577Z,31.13
2018-11-12T21:33:22.801Z,26.30
2018-11-12T21:36:01.508Z,18.30
2018-11-12T21:38:59.458Z,20.87
2018-11-12T21:41:28.705Z,28.03
2018-11-12T21:43:58.466Z,26.40
2018-11-12T21:46:27.525Z,18.57
2018-11-12T21:48:56.772Z,25.20
2018-11-12T21:51:26.329Z,19.67
2018-11-12T21:53:55.549Z,25.70
2018-11-12T21:59:24.916Z,25.00
2018-11-12T22:04:29.783Z,24.50
2018-11-12T22:06:59.037Z,26.50
2018-11-12T22:09:28.298Z,22.30
2018-11-12T22:11:57.516Z,16.77
2018-11-12T22:14:26.834Z,18.23
2018-11-12T22:17:02.043Z,18.57
2018-11-12T22:19:31.299Z,24.50
2018-11-12T22:22:00.491Z,19.93
2018-11-12T22:24:29.868Z,18.70
2018-11-12T22:26:59.067Z,25.53
2018-11-12T22:29:28.258Z,17.93
2018-11-12T22:32:01.018Z,18.97
2018-11-12T22:34:30.212Z,18.70
2018-11-12T22:37:00.038Z,29.47
2018-11-12T22:39:29.622Z,15.37
2018-11-12T22:41:58.840Z,20.50
2018-11-12T22:44:28.108Z,37.93
2018-11-12T22:46:57.341Z,41.47
2018-11-12T22:49:26.566Z,45.57
2018-11-12T22:51:55.805Z,16.80
2018-11-12T22:57:25.175Z,18.33
2018-11-12T22:59:54.554Z,33.53
2018-11-12T23:02:23.625Z,26.73
2018-11-12T23:04:52.847Z,29.30
2018-11-12T23:07:22.029Z,36.30
2018-11-12T23:09:51.245Z,24.20
2018-11-12T23:18:22.181Z,34.83
2018-11-12T23:20:51.413Z,29.97
2018-11-12T23:25:54.753Z,28.80
2018-11-12T23:28:23.953Z,25.37
2018-11-12T23:31:00.459Z,36.90
2018-11-12T23:33:29.677Z,39.63
2018-11-12T23:35:58.930Z,24.07
2018-11-12T23:38:28.185Z,38.83
2018-11-12T23:40:57.350Z,26.73
2018-11-12T23:43:26.578Z,33.30
2018-11-12T23:45:55.781Z,19.00
2018-11-12T23:48:24.976Z,31.40
2018-11-12T23:50:54.144Z,22.90
2018-11-12T23:53:23.344Z,20.57
2018-11-12T23:55:52.516Z,19.93
